sensor_id;sensor_type;location;lat;lon;timestamp;P1;durP1;ratioP1;P2;durP2;ratioP2
20040;SDS011;10181;48.072;9.884;2023-02-03T00:02:20;28.73;;;27.67;;
20040;SDS011;10181;48.072;9.884;2023-02-03T00:04:45;33.37;;;32.00;;
20040;SDS011;10181;48.072;9.884;2023-02-03T00:07:11;35.90;;;34.63;;
20040;SDS011;10181;48.072;9.884;2023-02-03T00:09:38;33.40;;;32.20;;
20040;SDS011;10181;48.072;9.884;2023-02-03T00:12:04;31.70;;;30.57;;
20040;SDS011;10181;48.072;9.884;2023-02-03T00:14:30;37.47;;;36.03;;
20040;SDS011;10181;48.072;9.884;2023-02-03T00:16:57;43.73;;;42.10;;
20040;SDS011;10181;48.072;9.884;2023-02-03T00:19:23;45.23;;;43.30;;
20040;SDS011;10181;48.072;9.884;2023-02-03T00:21:49;31.83;;;30.73;;
20040;SDS011;10181;48.072;9.884;2023-02-03T00:24:15;46.27;;;44.40;;
20040;SDS011;10181;48.072;9.884;2023-02-03T00:26:42;46.07;;;44.27;;
20040;SDS011;10181;48.072;9.884;2023-02-03T00:29:08;38.03;;;36.70;;
20040;SDS011;10181;48.072;9.884;2023-02-03T00:31:34;33.27;;;32.03;;
20040;SDS011;10181;48.072;9.884;2023-02-03T00:34:00;41.33;;;39.83;;
20040;SDS011;10181;48.072;9.884;2023-02-03T00:36:25;41.67;;;40.13;;
20040;SDS011;10181;48.072;9.884;2023-02-03T00:38:51;40.93;;;39.37;;
20040;SDS011;10181;48.072;9.884;2023-02-03T00:41:18;44.17;;;42.60;;
20040;SDS011;10181;48.072;9.884;2023-02-03T00:43:44;40.40;;;38.53;;
20040;SDS011;10181;48.072;9.884;2023-02-03T00:46:10;35.93;;;34.60;;
20040;SDS011;10181;48.072;9.884;2023-02-03T00:48:36;39.40;;;37.77;;
20040;SDS011;10181;48.072;9.884;2023-02-03T00:51:02;39.83;;;38.27;;
20040;SDS011;10181;48.072;9.884;2023-02-03T00:53:27;34.73;;;33.43;;
20040;SDS011;10181;48.072;9.884;2023-02-03T00:55:53;25.97;;;25.07;;
20040;SDS011;10181;48.072;9.884;2023-02-03T00:58:18;12.60;;;12.10;;
20040;SDS011;10181;48.072;9.884;2023-02-03T01:00:44;8.57;;;8.00;;
20040;SDS011;10181;48.072;9.884;2023-02-03T01:03:10;5.00;;;4.80;;
20040;SDS011;10181;48.072;9.884;2023-02-03T01:05:35;3.97;;;3.87;;
20040;SDS011;10181;48.072;9.884;2023-02-03T01:08:01;3.20;;;3.00;;
20040;SDS011;10181;48.072;9.884;2023-02-03T01:10:28;4.30;;;4.20;;
20040;SDS011;10181;48.072;9.884;2023-02-03T01:12:54;5.87;;;5.70;;
20040;SDS011;10181;48.072;9.884;2023-02-03T01:15:20;12.27;;;11.87;;
20040;SDS011;10181;48.072;9.884;2023-02-03T01:17:45;10.57;;;10.13;;
20040;SDS011;10181;48.072;9.884;2023-02-03T01:20:11;6.30;;;6.07;;
20040;SDS011;10181;48.072;9.884;2023-02-03T01:22:37;5.73;;;5.43;;
20040;SDS011;10181;48.072;9.884;2023-02-03T01:25:03;7.00;;;6.77;;
20040;SDS011;10181;48.072;9.884;2023-02-03T01:27:31;2.43;;;2.13;;
20040;SDS011;10181;48.072;9.884;2023-02-03T01:30:00;3.23;;;2.93;;
20040;SDS011;10181;48.072;9.884;2023-02-03T01:32:26;2.63;;;2.53;;
20040;SDS011;10181;48.072;9.884;2023-02-03T01:34:51;3.50;;;3.20;;
20040;SDS011;10181;48.072;9.884;2023-02-03T01:37:17;1.80;;;1.70;;
20040;SDS011;10181;48.072;9.884;2023-02-03T01:39:43;5.93;;;5.70;;
20040;SDS011;10181;48.072;9.884;2023-02-03T01:42:12;3.83;;;3.63;;
20040;SDS011;10181;48.072;9.884;2023-02-03T01:52:28;4.40;;;4.20;;
20040;SDS011;10181;48.072;9.884;2023-02-03T01:54:55;3.30;;;3.20;;
20040;SDS011;10181;48.072;9.884;2023-02-03T01:57:26;4.53;;;4.23;;
20040;SDS011;10181;48.072;9.884;2023-02-03T01:59:57;2.70;;;2.60;;
20040;SDS011;10181;48.072;9.884;2023-02-03T02:02:24;2.67;;;2.27;;
20040;SDS011;10181;48.072;9.884;2023-02-03T02:07:22;3.83;;;3.57;;
20040;SDS011;10181;48.072;9.884;2023-02-03T02:09:49;3.77;;;3.47;;
20040;SDS011;10181;48.072;9.884;2023-02-03T02:12:14;3.43;;;3.13;;
20040;SDS011;10181;48.072;9.884;2023-02-03T02:14:40;4.47;;;4.37;;
20040;SDS011;10181;48.072;9.884;2023-02-03T02:19:52;3.47;;;3.27;;
20040;SDS011;10181;48.072;9.884;2023-02-03T02:34:36;2.53;;;2.33;;
20040;SDS011;10181;48.072;9.884;2023-02-03T02:37:27;4.33;;;3.93;;
20040;SDS011;10181;48.072;9.884;2023-02-03T02:43:02;3.03;;;2.83;;
20040;SDS011;10181;48.072;9.884;2023-02-03T02:45:40;2.87;;;2.67;;
20040;SDS011;10181;48.072;9.884;2023-02-03T02:51:16;4.90;;;4.60;;
20040;SDS011;10181;48.072;9.884;2023-02-03T02:53:52;2.77;;;2.67;;
20040;SDS011;10181;48.072;9.884;2023-02-03T02:56:20;4.53;;;4.33;;
20040;SDS011;10181;48.072;9.884;2023-02-03T02:58:49;2.43;;;2.27;;
20040;SDS011;10181;48.072;9.884;2023-02-03T03:01:17;5.53;;;4.40;;
20040;SDS011;10181;48.072;9.884;2023-02-03T03:03:43;12.73;;;12.07;;
20040;SDS011;10181;48.072;9.884;2023-02-03T03:06:11;3.20;;;3.10;;
20040;SDS011;10181;48.072;9.884;2023-02-03T03:11:26;12.17;;;11.63;;
20040;SDS011;10181;48.072;9.884;2023-02-03T03:13:55;3.57;;;3.37;;
20040;SDS011;10181;48.072;9.884;2023-02-03T03:16:22;3.07;;;2.87;;
20040;SDS011;10181;48.072;9.884;2023-02-03T03:19:12;16.87;;;16.20;;
20040;SDS011;10181;48.072;9.884;2023-02-03T03:21:44;9.73;;;9.23;;
20040;SDS011;10181;48.072;9.884;2023-02-03T03:24:16;3.83;;;3.73;;
20040;SDS011;10181;48.072;9.884;2023-02-03T03:26:49;3.77;;;3.63;;
20040;SDS011;10181;48.072;9.884;2023-02-03T03:32:03;3.53;;;3.07;;
20040;SDS011;10181;48.072;9.884;2023-02-03T03:34:29;2.70;;;2.50;;
20040;SDS011;10181;48.072;9.884;2023-02-03T03:37:06;2.47;;;2.37;;
20040;SDS011;10181;48.072;9.884;2023-02-03T03:39:56;14.97;;;14.20;;
20040;SDS011;10181;48.072;9.884;2023-02-03T03:45:23;2.67;;;2.50;;
20040;SDS011;10181;48.072;9.884;2023-02-03T03:50:46;4.53;;;4.33;;
20040;SDS011;10181;48.072;9.884;2023-02-03T03:53:39;6.50;;;6.20;;
20040;SDS011;10181;48.072;9.884;2023-02-03T03:56:09;31.30;;;30.13;;
20040;SDS011;10181;48.072;9.884;2023-02-03T03:58:39;8.43;;;8.03;;
20040;SDS011;10181;48.072;9.884;2023-02-03T04:01:09;4.47;;;4.27;;
20040;SDS011;10181;48.072;9.884;2023-02-03T04:03:38;3.93;;;3.83;;
20040;SDS011;10181;48.072;9.884;2023-02-03T04:06:08;10.93;;;10.43;;
20040;SDS011;10181;48.072;9.884;2023-02-03T04:08:34;3.60;;;3.40;;
20040;SDS011;10181;48.072;9.884;2023-02-03T04:10:59;4.50;;;4.40;;
20040;SDS011;10181;48.072;9.884;2023-02-03T04:13:25;16.07;;;15.30;;
20040;SDS011;10181;48.072;9.884;2023-02-03T04:15:50;7.53;;;7.23;;
20040;SDS011;10181;48.072;9.884;2023-02-03T04:18:16;6.47;;;6.17;;
20040;SDS011;10181;48.072;9.884;2023-02-03T04:20:41;13.87;;;13.37;;
20040;SDS011;10181;48.072;9.884;2023-02-03T04:23:07;7.67;;;7.13;;
20040;SDS011;10181;48.072;9.884;2023-02-03T04:25:33;19.53;;;18.87;;
20040;SDS011;10181;48.072;9.884;2023-02-03T04:27:59;14.30;;;13.80;;
20040;SDS011;10181;48.072;9.884;2023-02-03T04:30:24;32.80;;;31.57;;
20040;SDS011;10181;48.072;9.884;2023-02-03T04:32:50;39.50;;;38.03;;
20040;SDS011;10181;48.072;9.884;2023-02-03T04:35:17;48.63;;;46.80;;
20040;SDS011;10181;48.072;9.884;2023-02-03T04:37:43;57.53;;;55.17;;
20040;SDS011;10181;48.072;9.884;2023-02-03T04:40:08;76.97;;;73.80;;
20040;SDS011;10181;48.072;9.884;2023-02-03T04:42:36;80.87;;;77.87;;
20040;SDS011;10181;48.072;9.884;2023-02-03T04:45:03;78.07;;;75.10;;
20040;SDS011;10181;48.072;9.884;2023-02-03T04:47:29;88.07;;;84.63;;
20040;SDS011;10181;48.072;9.884;2023-02-03T04:49:54;81.40;;;78.40;;
20040;SDS011;10181;48.072;9.884;2023-02-03T04:52:20;74.60;;;71.80;;
20040;SDS011;10181;48.072;9.884;2023-02-03T04:54:45;84.30;;;81.10;;
20040;SDS011;10181;48.072;9.884;2023-02-03T04:57:11;74.43;;;71.50;;
20040;SDS011;10181;48.072;9.884;2023-02-03T04:59:37;78.73;;;75.80;;
20040;SDS011;10181;48.072;9.884;2023-02-03T05:02:02;79.83;;;76.90;;
20040;SDS011;10181;48.072;9.884;2023-02-03T05:04:28;55.73;;;53.53;;
20040;SDS011;10181;48.072;9.884;2023-02-03T05:06:54;84.63;;;81.40;;
20040;SDS011;10181;48.072;9.884;2023-02-03T05:09:20;62.73;;;60.30;;
20040;SDS011;10181;48.072;9.884;2023-02-03T05:11:46;87.30;;;84.00;;
20040;SDS011;10181;48.072;9.884;2023-02-03T05:14:11;55.03;;;52.83;;
20040;SDS011;10181;48.072;9.884;2023-02-03T05:16:37;66.17;;;63.40;;
20040;SDS011;10181;48.072;9.884;2023-02-03T05:19:03;70.47;;;67.77;;
20040;SDS011;10181;48.072;9.884;2023-02-03T05:21:28;63.30;;;60.93;;
20040;SDS011;10181;48.072;9.884;2023-02-03T05:23:54;62.17;;;59.87;;
20040;SDS011;10181;48.072;9.884;2023-02-03T05:26:19;57.73;;;55.53;;
20040;SDS011;10181;48.072;9.884;2023-02-03T05:28:45;44.70;;;43.00;;
20040;SDS011;10181;48.072;9.884;2023-02-03T05:31:11;35.67;;;34.17;;
20040;SDS011;10181;48.072;9.884;2023-02-03T05:33:36;22.77;;;21.87;;
20040;SDS011;10181;48.072;9.884;2023-02-03T05:36:02;12.20;;;11.63;;
20040;SDS011;10181;48.072;9.884;2023-02-03T05:38:28;7.67;;;7.23;;
20040;SDS011;10181;48.072;9.884;2023-02-03T05:40:53;2.57;;;2.37;;
20040;SDS011;10181;48.072;9.884;2023-02-03T05:43:37;7.30;;;3.77;;
20040;SDS011;10181;48.072;9.884;2023-02-03T05:46:03;2.80;;;2.27;;
20040;SDS011;10181;48.072;9.884;2023-02-03T05:48:30;2.80;;;2.70;;
20040;SDS011;10181;48.072;9.884;2023-02-03T05:50:57;2.53;;;2.27;;
20040;SDS011;10181;48.072;9.884;2023-02-03T05:53:22;14.50;;;13.83;;
20040;SDS011;10181;48.072;9.884;2023-02-03T05:55:48;5.77;;;5.50;;
20040;SDS011;10181;48.072;9.884;2023-02-03T05:58:14;5.60;;;5.20;;
20040;SDS011;10181;48.072;9.884;2023-02-03T06:00:40;79.03;;;36.00;;
20040;SDS011;10181;48.072;9.884;2023-02-03T06:03:05;14.10;;;13.07;;
20040;SDS011;10181;48.072;9.884;2023-02-03T06:05:31;9.40;;;9.03;;
20040;SDS011;10181;48.072;9.884;2023-02-03T06:07:58;11.17;;;10.77;;
20040;SDS011;10181;48.072;9.884;2023-02-03T06:10:24;12.30;;;11.70;;
20040;SDS011;10181;48.072;9.884;2023-02-03T06:12:50;12.07;;;11.57;;
20040;SDS011;10181;48.072;9.884;2023-02-03T06:15:16;13.20;;;12.77;;
20040;SDS011;10181;48.072;9.884;2023-02-03T06:17:45;10.70;;;10.30;;
20040;SDS011;10181;48.072;9.884;2023-02-03T06:20:13;13.57;;;13.03;;
20040;SDS011;10181;48.072;9.884;2023-02-03T06:22:41;10.73;;;10.33;;
20040;SDS011;10181;48.072;9.884;2023-02-03T06:25:06;14.57;;;13.63;;
20040;SDS011;10181;48.072;9.884;2023-02-03T06:27:33;8.63;;;8.43;;
20040;SDS011;10181;48.072;9.884;2023-02-03T06:29:58;5.30;;;5.10;;
20040;SDS011;10181;48.072;9.884;2023-02-03T06:32:24;4.13;;;3.93;;
20040;SDS011;10181;48.072;9.884;2023-02-03T06:34:49;7.17;;;6.67;;
20040;SDS011;10181;48.072;9.884;2023-02-03T06:37:15;5.90;;;5.63;;
20040;SDS011;10181;48.072;9.884;2023-02-03T06:39:41;5.60;;;5.20;;
20040;SDS011;10181;48.072;9.884;2023-02-03T06:42:07;5.47;;;5.20;;
20040;SDS011;10181;48.072;9.884;2023-02-03T06:44:36;3.60;;;3.43;;
20040;SDS011;10181;48.072;9.884;2023-02-03T06:47:02;8.60;;;8.23;;
20040;SDS011;10181;48.072;9.884;2023-02-03T06:49:28;5.70;;;5.43;;
20040;SDS011;10181;48.072;9.884;2023-02-03T06:51:54;9.80;;;9.50;;
20040;SDS011;10181;48.072;9.884;2023-02-03T06:54:20;12.00;;;11.63;;
20040;SDS011;10181;48.072;9.884;2023-02-03T06:56:45;30.40;;;29.20;;
20040;SDS011;10181;48.072;9.884;2023-02-03T06:59:11;15.83;;;15.27;;
20040;SDS011;10181;48.072;9.884;2023-02-03T07:01:40;29.20;;;28.10;;
20040;SDS011;10181;48.072;9.884;2023-02-03T07:04:06;33.03;;;31.83;;
20040;SDS011;10181;48.072;9.884;2023-02-03T07:06:31;30.63;;;29.43;;
20040;SDS011;10181;48.072;9.884;2023-02-03T07:09:01;29.53;;;28.53;;
20040;SDS011;10181;48.072;9.884;2023-02-03T07:11:28;27.03;;;26.00;;
20040;SDS011;10181;48.072;9.884;2023-02-03T07:13:55;23.57;;;22.70;;
20040;SDS011;10181;48.072;9.884;2023-02-03T07:16:21;43.27;;;41.57;;
20040;SDS011;10181;48.072;9.884;2023-02-03T07:18:47;36.50;;;35.00;;
20040;SDS011;10181;48.072;9.884;2023-02-03T07:21:13;38.73;;;37.30;;
20040;SDS011;10181;48.072;9.884;2023-02-03T07:23:40;45.27;;;43.53;;
20040;SDS011;10181;48.072;9.884;2023-02-03T07:26:06;47.07;;;45.17;;
20040;SDS011;10181;48.072;9.884;2023-02-03T07:28:33;54.43;;;52.40;;
20040;SDS011;10181;48.072;9.884;2023-02-03T07:30:59;63.50;;;60.90;;
20040;SDS011;10181;48.072;9.884;2023-02-03T07:33:26;72.27;;;69.57;;
20040;SDS011;10181;48.072;9.884;2023-02-03T07:35:55;64.20;;;61.30;;
20040;SDS011;10181;48.072;9.884;2023-02-03T07:38:23;68.27;;;65.67;;
20040;SDS011;10181;48.072;9.884;2023-02-03T07:40:50;64.63;;;62.13;;
20040;SDS011;10181;48.072;9.884;2023-02-03T07:43:16;90.60;;;87.27;;
20040;SDS011;10181;48.072;9.884;2023-02-03T07:45:42;70.90;;;68.20;;
20040;SDS011;10181;48.072;9.884;2023-02-03T07:48:08;53.20;;;51.17;;
20040;SDS011;10181;48.072;9.884;2023-02-03T07:50:34;75.10;;;72.27;;
20040;SDS011;10181;48.072;9.884;2023-02-03T07:53:00;59.60;;;57.07;;
20040;SDS011;10181;48.072;9.884;2023-02-03T07:55:26;59.13;;;56.90;;
20040;SDS011;10181;48.072;9.884;2023-02-03T07:57:53;55.93;;;53.83;;
20040;SDS011;10181;48.072;9.884;2023-02-03T08:00:19;72.73;;;69.93;;
20040;SDS011;10181;48.072;9.884;2023-02-03T08:02:45;42.53;;;40.97;;
20040;SDS011;10181;48.072;9.884;2023-02-03T08:05:11;38.23;;;36.87;;
20040;SDS011;10181;48.072;9.884;2023-02-03T08:07:38;52.83;;;50.57;;
20040;SDS011;10181;48.072;9.884;2023-02-03T08:10:04;20.23;;;19.60;;
20040;SDS011;10181;48.072;9.884;2023-02-03T08:12:31;38.33;;;36.83;;
20040;SDS011;10181;48.072;9.884;2023-02-03T08:14:56;47.40;;;45.50;;
20040;SDS011;10181;48.072;9.884;2023-02-03T08:17:22;47.43;;;45.30;;
20040;SDS011;10181;48.072;9.884;2023-02-03T08:19:48;46.67;;;44.87;;
20040;SDS011;10181;48.072;9.884;2023-02-03T08:22:13;43.17;;;41.40;;
20040;SDS011;10181;48.072;9.884;2023-02-03T08:24:43;43.60;;;42.00;;
20040;SDS011;10181;48.072;9.884;2023-02-03T08:27:10;37.03;;;35.63;;
20040;SDS011;10181;48.072;9.884;2023-02-03T08:29:36;26.60;;;25.67;;
20040;SDS011;10181;48.072;9.884;2023-02-03T08:32:02;27.97;;;26.80;;
20040;SDS011;10181;48.072;9.884;2023-02-03T08:34:28;48.07;;;46.17;;
20040;SDS011;10181;48.072;9.884;2023-02-03T08:36:54;22.77;;;21.97;;
20040;SDS011;10181;48.072;9.884;2023-02-03T08:39:19;33.53;;;32.33;;
20040;SDS011;10181;48.072;9.884;2023-02-03T08:41:45;54.17;;;48.73;;
20040;SDS011;10181;48.072;9.884;2023-02-03T08:44:10;43.30;;;40.83;;
20040;SDS011;10181;48.072;9.884;2023-02-03T08:46:36;33.43;;;31.73;;
20040;SDS011;10181;48.072;9.884;2023-02-03T08:49:07;47.97;;;46.13;;
20040;SDS011;10181;48.072;9.884;2023-02-03T08:51:33;44.73;;;43.00;;
20040;SDS011;10181;48.072;9.884;2023-02-03T08:53:58;51.23;;;48.97;;
20040;SDS011;10181;48.072;9.884;2023-02-03T08:56:24;56.90;;;54.37;;
20040;SDS011;10181;48.072;9.884;2023-02-03T08:58:51;58.90;;;56.50;;
20040;SDS011;10181;48.072;9.884;2023-02-03T09:01:16;59.03;;;56.50;;
20040;SDS011;10181;48.072;9.884;2023-02-03T09:03:42;50.27;;;48.27;;
20040;SDS011;10181;48.072;9.884;2023-02-03T09:06:08;27.03;;;25.93;;
20040;SDS011;10181;48.072;9.884;2023-02-03T09:08:36;28.80;;;27.57;;
20040;SDS011;10181;48.072;9.884;2023-02-03T09:11:01;42.47;;;40.87;;
20040;SDS011;10181;48.072;9.884;2023-02-03T09:13:32;27.87;;;26.77;;
20040;SDS011;10181;48.072;9.884;2023-02-03T09:15:58;40.13;;;38.57;;
20040;SDS011;10181;48.072;9.884;2023-02-03T09:18:24;42.63;;;40.80;;
20040;SDS011;10181;48.072;9.884;2023-02-03T09:20:50;50.80;;;48.77;;
20040;SDS011;10181;48.072;9.884;2023-02-03T09:23:16;36.90;;;35.57;;
20040;SDS011;10181;48.072;9.884;2023-02-03T09:25:41;41.33;;;39.63;;
20040;SDS011;10181;48.072;9.884;2023-02-03T09:28:07;48.50;;;46.33;;
20040;SDS011;10181;48.072;9.884;2023-02-03T09:30:32;37.40;;;35.93;;
20040;SDS011;10181;48.072;9.884;2023-02-03T09:32:58;35.20;;;33.97;;
20040;SDS011;10181;48.072;9.884;2023-02-03T09:35:24;32.83;;;31.60;;
20040;SDS011;10181;48.072;9.884;2023-02-03T09:37:51;59.53;;;57.03;;
20040;SDS011;10181;48.072;9.884;2023-02-03T09:40:21;43.03;;;41.27;;
20040;SDS011;10181;48.072;9.884;2023-02-03T09:45:23;53.43;;;51.40;;
20040;SDS011;10181;48.072;9.884;2023-02-03T09:47:50;65.53;;;62.80;;
20040;SDS011;10181;48.072;9.884;2023-02-03T09:50:26;59.03;;;56.77;;
20040;SDS011;10181;48.072;9.884;2023-02-03T09:52:56;75.27;;;72.27;;
20040;SDS011;10181;48.072;9.884;2023-02-03T10:01:18;71.17;;;68.47;;
20040;SDS011;10181;48.072;9.884;2023-02-03T10:03:43;37.63;;;36.17;;
20040;SDS011;10181;48.072;9.884;2023-02-03T10:14:24;7.53;;;7.33;;
20040;SDS011;10181;48.072;9.884;2023-02-03T10:17:11;6.70;;;6.50;;
20040;SDS011;10181;48.072;9.884;2023-02-03T10:20:39;7.10;;;6.90;;
20040;SDS011;10181;48.072;9.884;2023-02-03T10:22:49;5.00;;;4.80;;
20040;SDS011;10181;48.072;9.884;2023-02-03T10:25:31;2.83;;;2.63;;
20040;SDS011;10181;48.072;9.884;2023-02-03T10:28:02;5.73;;;5.53;;
20040;SDS011;10181;48.072;9.884;2023-02-03T10:30:35;4.13;;;4.03;;
20040;SDS011;10181;48.072;9.884;2023-02-03T10:33:13;5.17;;;4.87;;
20040;SDS011;10181;48.072;9.884;2023-02-03T10:35:48;5.50;;;5.37;;
20040;SDS011;10181;48.072;9.884;2023-02-03T10:38:19;8.13;;;7.83;;
20040;SDS011;10181;48.072;9.884;2023-02-03T10:40:57;19.17;;;18.67;;
20040;SDS011;10181;48.072;9.884;2023-02-03T10:43:23;7.17;;;6.97;;
20040;SDS011;10181;48.072;9.884;2023-02-03T10:46:07;7.17;;;6.97;;
20040;SDS011;10181;48.072;9.884;2023-02-03T10:48:33;12.97;;;12.60;;
20040;SDS011;10181;48.072;9.884;2023-02-03T10:50:58;14.73;;;14.10;;
20040;SDS011;10181;48.072;9.884;2023-02-03T10:53:35;35.80;;;34.50;;
20040;SDS011;10181;48.072;9.884;2023-02-03T10:56:08;34.77;;;33.47;;
20040;SDS011;10181;48.072;9.884;2023-02-03T10:58:37;17.97;;;17.43;;
20040;SDS011;10181;48.072;9.884;2023-02-03T11:01:14;31.00;;;29.80;;
20040;SDS011;10181;48.072;9.884;2023-02-03T11:03:42;18.97;;;18.30;;
20040;SDS011;10181;48.072;9.884;2023-02-03T11:06:17;15.10;;;14.70;;
20040;SDS011;10181;48.072;9.884;2023-02-03T11:08:44;17.30;;;16.47;;
20040;SDS011;10181;48.072;9.884;2023-02-03T11:11:19;28.63;;;27.73;;
20040;SDS011;10181;48.072;9.884;2023-02-03T11:13:55;29.97;;;28.73;;
20040;SDS011;10181;48.072;9.884;2023-02-03T11:16:34;37.43;;;36.13;;
20040;SDS011;10181;48.072;9.884;2023-02-03T11:19:01;24.80;;;24.00;;
20040;SDS011;10181;48.072;9.884;2023-02-03T11:21:48;27.37;;;26.37;;
20040;SDS011;10181;48.072;9.884;2023-02-03T11:24:20;14.33;;;13.83;;
20040;SDS011;10181;48.072;9.884;2023-02-03T11:29:18;6.80;;;6.60;;
20040;SDS011;10181;48.072;9.884;2023-02-03T11:31:52;4.30;;;4.10;;
20040;SDS011;10181;48.072;9.884;2023-02-03T11:34:43;7.67;;;7.47;;
20040;SDS011;10181;48.072;9.884;2023-02-03T11:40:40;20.83;;;20.23;;
20040;SDS011;10181;48.072;9.884;2023-02-03T11:42:44;15.90;;;15.30;;
20040;SDS011;10181;48.072;9.884;2023-02-03T11:56:33;2.60;;;2.50;;
20040;SDS011;10181;48.072;9.884;2023-02-03T12:05:11;3.60;;;3.50;;
20040;SDS011;10181;48.072;9.884;2023-02-03T12:13:17;3.50;;;3.40;;
20040;SDS011;10181;48.072;9.884;2023-02-03T12:18:33;2.50;;;2.50;;
20040;SDS011;10181;48.072;9.884;2023-02-03T12:29:20;2.60;;;2.53;;
20040;SDS011;10181;48.072;9.884;2023-02-03T12:34:29;2.67;;;2.57;;
20040;SDS011;10181;48.072;9.884;2023-02-03T12:37:22;3.20;;;3.10;;
20040;SDS011;10181;48.072;9.884;2023-02-03T12:39:51;3.00;;;2.80;;
20040;SDS011;10181;48.072;9.884;2023-02-03T12:42:21;5.77;;;5.47;;
20040;SDS011;10181;48.072;9.884;2023-02-03T12:45:05;5.17;;;4.77;;
20040;SDS011;10181;48.072;9.884;2023-02-03T12:47:46;4.73;;;4.27;;
20040;SDS011;10181;48.072;9.884;2023-02-03T12:50:17;4.00;;;3.80;;
20040;SDS011;10181;48.072;9.884;2023-02-03T12:55:19;1.87;;;1.87;;
20040;SDS011;10181;48.072;9.884;2023-02-03T12:57:59;2.70;;;2.50;;
20040;SDS011;10181;48.072;9.884;2023-02-03T13:00:49;4.00;;;3.90;;
20040;SDS011;10181;48.072;9.884;2023-02-03T13:03:26;2.37;;;2.27;;
20040;SDS011;10181;48.072;9.884;2023-02-03T13:13:19;2.73;;;2.27;;
20040;SDS011;10181;48.072;9.884;2023-02-03T13:18:07;2.40;;;2.30;;
20040;SDS011;10181;48.072;9.884;2023-02-03T13:21:04;2.53;;;2.43;;
20040;SDS011;10181;48.072;9.884;2023-02-03T13:23:30;2.17;;;2.07;;
20040;SDS011;10181;48.072;9.884;2023-02-03T13:31:27;1.77;;;1.77;;
20040;SDS011;10181;48.072;9.884;2023-02-03T13:34:23;2.50;;;2.40;;
20040;SDS011;10181;48.072;9.884;2023-02-03T13:44:46;3.83;;;3.73;;
20040;SDS011;10181;48.072;9.884;2023-02-03T13:47:17;3.47;;;3.37;;
20040;SDS011;10181;48.072;9.884;2023-02-03T13:49:49;2.47;;;2.37;;
20040;SDS011;10181;48.072;9.884;2023-02-03T13:52:33;2.20;;;2.20;;
20040;SDS011;10181;48.072;9.884;2023-02-03T13:55:02;2.00;;;1.90;;
20040;SDS011;10181;48.072;9.884;2023-02-03T13:57:35;2.70;;;2.60;;
20040;SDS011;10181;48.072;9.884;2023-02-03T14:00:04;2.73;;;2.63;;
20040;SDS011;10181;48.072;9.884;2023-02-03T14:02:53;2.90;;;2.80;;
20040;SDS011;10181;48.072;9.884;2023-02-03T14:18:59;2.77;;;2.77;;
20040;SDS011;10181;48.072;9.884;2023-02-03T14:21:25;2.90;;;2.80;;
20040;SDS011;10181;48.072;9.884;2023-02-03T14:24:02;3.60;;;3.50;;
20040;SDS011;10181;48.072;9.884;2023-02-03T14:26:42;3.33;;;3.23;;
20040;SDS011;10181;48.072;9.884;2023-02-03T14:32:03;3.30;;;3.20;;
20040;SDS011;10181;48.072;9.884;2023-02-03T14:34:31;3.00;;;2.97;;
20040;SDS011;10181;48.072;9.884;2023-02-03T14:37:11;3.53;;;3.43;;
20040;SDS011;10181;48.072;9.884;2023-02-03T14:51:00;2.30;;;2.20;;
20040;SDS011;10181;48.072;9.884;2023-02-03T14:56:20;2.90;;;2.80;;
20040;SDS011;10181;48.072;9.884;2023-02-03T14:59:22;3.47;;;3.13;;
20040;SDS011;10181;48.072;9.884;2023-02-03T15:04:36;2.27;;;2.27;;
20040;SDS011;10181;48.072;9.884;2023-02-03T15:07:01;2.43;;;2.33;;
20040;SDS011;10181;48.072;9.884;2023-02-03T15:09:35;2.90;;;2.80;;
20040;SDS011;10181;48.072;9.884;2023-02-03T15:12:14;3.10;;;3.00;;
20040;SDS011;10181;48.072;9.884;2023-02-03T15:14:46;2.93;;;2.87;;
20040;SDS011;10181;48.072;9.884;2023-02-03T15:17:17;3.07;;;2.97;;
20040;SDS011;10181;48.072;9.884;2023-02-03T15:19:46;3.13;;;3.03;;
20040;SDS011;10181;48.072;9.884;2023-02-03T15:24:43;2.93;;;2.93;;
20040;SDS011;10181;48.072;9.884;2023-02-03T15:27:18;3.00;;;3.00;;
20040;SDS011;10181;48.072;9.884;2023-02-03T15:29:48;2.87;;;2.87;;
20040;SDS011;10181;48.072;9.884;2023-02-03T15:32:19;3.00;;;3.00;;
20040;SDS011;10181;48.072;9.884;2023-02-03T15:34:48;3.00;;;2.90;;
20040;SDS011;10181;48.072;9.884;2023-02-03T15:42:42;2.77;;;2.73;;
20040;SDS011;10181;48.072;9.884;2023-02-03T15:48:07;2.43;;;2.43;;
20040;SDS011;10181;48.072;9.884;2023-02-03T15:50:52;2.60;;;2.60;;
20040;SDS011;10181;48.072;9.884;2023-02-03T15:53:27;2.60;;;2.60;;
20040;SDS011;10181;48.072;9.884;2023-02-03T15:55:58;2.70;;;2.60;;
20040;SDS011;10181;48.072;9.884;2023-02-03T15:58:30;2.77;;;2.77;;
20040;SDS011;10181;48.072;9.884;2023-02-03T16:01:04;3.23;;;3.23;;
20040;SDS011;10181;48.072;9.884;2023-02-03T16:06:18;2.73;;;2.73;;
20040;SDS011;10181;48.072;9.884;2023-02-03T16:08:46;3.03;;;2.93;;
20040;SDS011;10181;48.072;9.884;2023-02-03T16:13:59;2.67;;;2.67;;
20040;SDS011;10181;48.072;9.884;2023-02-03T16:18:59;3.07;;;3.03;;
20040;SDS011;10181;48.072;9.884;2023-02-03T16:23:58;2.87;;;2.77;;
20040;SDS011;10181;48.072;9.884;2023-02-03T16:26:28;3.40;;;3.33;;
20040;SDS011;10181;48.072;9.884;2023-02-03T16:29:07;2.47;;;2.47;;
20040;SDS011;10181;48.072;9.884;2023-02-03T16:31:55;1.40;;;1.40;;
20040;SDS011;10181;48.072;9.884;2023-02-03T16:34:40;4.87;;;4.77;;
20040;SDS011;10181;48.072;9.884;2023-02-03T16:37:25;8.60;;;8.37;;
20040;SDS011;10181;48.072;9.884;2023-02-03T16:40:18;3.70;;;3.70;;
20040;SDS011;10181;48.072;9.884;2023-02-03T16:43:04;2.03;;;2.03;;
20040;SDS011;10181;48.072;9.884;2023-02-03T16:45:54;3.90;;;3.80;;
20040;SDS011;10181;48.072;9.884;2023-02-03T16:48:40;3.37;;;3.37;;
20040;SDS011;10181;48.072;9.884;2023-02-03T16:51:24;5.77;;;5.67;;
20040;SDS011;10181;48.072;9.884;2023-02-03T16:53:53;3.83;;;3.73;;
20040;SDS011;10181;48.072;9.884;2023-02-03T16:56:18;3.77;;;3.67;;
20040;SDS011;10181;48.072;9.884;2023-02-03T16:58:44;2.40;;;2.40;;
20040;SDS011;10181;48.072;9.884;2023-02-03T17:01:10;2.20;;;2.20;;
20040;SDS011;10181;48.072;9.884;2023-02-03T17:03:36;3.80;;;3.70;;
20040;SDS011;10181;48.072;9.884;2023-02-03T17:06:11;3.20;;;3.17;;
20040;SDS011;10181;48.072;9.884;2023-02-03T17:08:38;2.47;;;2.47;;
20040;SDS011;10181;48.072;9.884;2023-02-03T17:11:06;4.43;;;4.33;;
20040;SDS011;10181;48.072;9.884;2023-02-03T17:13:39;9.70;;;9.40;;
20040;SDS011;10181;48.072;9.884;2023-02-03T17:16:09;5.00;;;4.90;;
20040;SDS011;10181;48.072;9.884;2023-02-03T17:18:40;12.93;;;12.53;;
20040;SDS011;10181;48.072;9.884;2023-02-03T17:21:07;13.97;;;13.57;;
20040;SDS011;10181;48.072;9.884;2023-02-03T17:23:35;25.23;;;24.43;;
20040;SDS011;10181;48.072;9.884;2023-02-03T17:26:01;23.33;;;22.63;;
20040;SDS011;10181;48.072;9.884;2023-02-03T17:28:27;14.73;;;14.33;;
20040;SDS011;10181;48.072;9.884;2023-02-03T17:30:56;12.60;;;12.17;;
20040;SDS011;10181;48.072;9.884;2023-02-03T17:33:23;14.30;;;13.90;;
20040;SDS011;10181;48.072;9.884;2023-02-03T17:35:58;16.87;;;16.37;;
20040;SDS011;10181;48.072;9.884;2023-02-03T17:38:38;18.57;;;18.00;;
20040;SDS011;10181;48.072;9.884;2023-02-03T17:41:12;21.40;;;20.77;;
20040;SDS011;10181;48.072;9.884;2023-02-03T17:43:39;22.37;;;21.67;;
20040;SDS011;10181;48.072;9.884;2023-02-03T17:46:06;19.57;;;19.00;;
20040;SDS011;10181;48.072;9.884;2023-02-03T17:48:32;30.97;;;29.97;;
20040;SDS011;10181;48.072;9.884;2023-02-03T17:53:56;43.77;;;42.27;;